首页
METAR-TAF:

METAR-TAF

机场 :

石油平台

Euro, 荷兰

纬度: 51-59-52N, 经度: 3-16-30E, 海拔: 18米

当前天气观测

该预报发布于26分钟前的02:55 UTC
风速12节,风向
温度 19°C
湿度 73%
气压 1024 hPa
能见度10公里或以上

METAR: EHSA 220255Z AUTO 17012KT 9999 ///////// 19/14 Q1024 W17/H4

时间: 05:21 (03:21 UTC)


TAF: 丢失

超过4000个机场的气象观测和天气预报(METAR&TAF报告)。

可查询的气象台以黄色和红色小点在地图上表示。

将鼠标移到小点上方,可查看气象台名称。

然后点击查看天气观测和预报。

如需切换地图:点击带黑十字的绿色按钮放大地图;点击带横线的绿色按钮缩小地图;或者点击绿色箭头查看邻近地区的地图。


METAR-TAF: